sensor_id;sensor_type;location;lat;lon;timestamp;P1;durP1;ratioP1;P2;durP2;ratioP2
28958;SDS011;16066;0.000;0.000;2023-02-28T00:02:13;7.37;;;6.00;;
28958;SDS011;16066;0.000;0.000;2023-02-28T00:04:38;7.90;;;6.40;;
28958;SDS011;16066;0.000;0.000;2023-02-28T00:07:04;8.83;;;6.73;;
28958;SDS011;16066;0.000;0.000;2023-02-28T00:09:29;8.00;;;6.00;;
28958;SDS011;16066;0.000;0.000;2023-02-28T00:11:55;8.17;;;6.20;;
28958;SDS011;16066;0.000;0.000;2023-02-28T00:14:20;8.70;;;5.97;;
28958;SDS011;16066;0.000;0.000;2023-02-28T00:16:46;8.23;;;6.33;;
28958;SDS011;16066;0.000;0.000;2023-02-28T00:19:11;8.97;;;6.60;;
28958;SDS011;16066;0.000;0.000;2023-02-28T00:21:38;9.23;;;6.60;;
28958;SDS011;16066;0.000;0.000;2023-02-28T00:24:05;10.30;;;6.53;;
28958;SDS011;16066;0.000;0.000;2023-02-28T00:26:31;7.40;;;5.57;;
28958;SDS011;16066;0.000;0.000;2023-02-28T00:28:57;10.23;;;7.30;;
28958;SDS011;16066;0.000;0.000;2023-02-28T00:31:22;8.30;;;5.87;;
28958;SDS011;16066;0.000;0.000;2023-02-28T00:33:48;8.93;;;6.50;;
28958;SDS011;16066;0.000;0.000;2023-02-28T00:36:13;11.40;;;6.40;;
28958;SDS011;16066;0.000;0.000;2023-02-28T00:38:39;10.27;;;5.83;;
28958;SDS011;16066;0.000;0.000;2023-02-28T00:41:06;8.40;;;5.97;;
28958;SDS011;16066;0.000;0.000;2023-02-28T00:43:33;9.53;;;7.00;;
28958;SDS011;16066;0.000;0.000;2023-02-28T00:45:59;7.43;;;5.70;;
28958;SDS011;16066;0.000;0.000;2023-02-28T00:48:25;9.37;;;6.70;;
28958;SDS011;16066;0.000;0.000;2023-02-28T00:50:51;8.40;;;6.30;;
28958;SDS011;16066;0.000;0.000;2023-02-28T00:53:16;8.93;;;6.27;;
28958;SDS011;16066;0.000;0.000;2023-02-28T00:55:42;8.00;;;6.03;;
28958;SDS011;16066;0.000;0.000;2023-02-28T00:58:08;9.10;;;6.27;;
28958;SDS011;16066;0.000;0.000;2023-02-28T01:00:33;9.83;;;6.27;;
28958;SDS011;16066;0.000;0.000;2023-02-28T01:02:59;9.13;;;6.20;;
28958;SDS011;16066;0.000;0.000;2023-02-28T01:05:24;7.30;;;5.40;;
28958;SDS011;16066;0.000;0.000;2023-02-28T01:07:50;8.30;;;6.30;;
28958;SDS011;16066;0.000;0.000;2023-02-28T01:10:15;9.70;;;6.40;;
28958;SDS011;16066;0.000;0.000;2023-02-28T01:12:41;7.70;;;6.07;;
28958;SDS011;16066;0.000;0.000;2023-02-28T01:15:06;8.40;;;6.17;;
28958;SDS011;16066;0.000;0.000;2023-02-28T01:17:35;8.63;;;6.53;;
28958;SDS011;16066;0.000;0.000;2023-02-28T01:20:01;9.17;;;6.80;;
28958;SDS011;16066;0.000;0.000;2023-02-28T01:22:27;11.80;;;6.67;;
28958;SDS011;16066;0.000;0.000;2023-02-28T01:24:53;10.27;;;7.03;;
28958;SDS011;16066;0.000;0.000;2023-02-28T01:27:18;10.93;;;7.30;;
28958;SDS011;16066;0.000;0.000;2023-02-28T01:29:44;9.33;;;7.17;;
28958;SDS011;16066;0.000;0.000;2023-02-28T01:32:10;9.83;;;7.57;;
28958;SDS011;16066;0.000;0.000;2023-02-28T01:34:35;8.73;;;6.90;;
28958;SDS011;16066;0.000;0.000;2023-02-28T01:37:01;8.97;;;6.10;;
28958;SDS011;16066;0.000;0.000;2023-02-28T01:39:28;9.80;;;7.33;;
28958;SDS011;16066;0.000;0.000;2023-02-28T01:41:54;9.73;;;6.80;;
28958;SDS011;16066;0.000;0.000;2023-02-28T01:47:23;10.97;;;7.20;;
28958;SDS011;16066;0.000;0.000;2023-02-28T01:49:53;10.87;;;7.77;;
28958;SDS011;16066;0.000;0.000;2023-02-28T01:52:19;11.73;;;7.57;;
28958;SDS011;16066;0.000;0.000;2023-02-28T01:54:48;12.53;;;8.17;;
28958;SDS011;16066;0.000;0.000;2023-02-28T01:57:19;11.83;;;8.23;;
28958;SDS011;16066;0.000;0.000;2023-02-28T01:59:52;10.33;;;7.30;;
28958;SDS011;16066;0.000;0.000;2023-02-28T02:02:21;9.87;;;7.50;;
28958;SDS011;16066;0.000;0.000;2023-02-28T02:04:56;12.00;;;8.70;;
28958;SDS011;16066;0.000;0.000;2023-02-28T02:07:28;10.80;;;8.13;;
28958;SDS011;16066;0.000;0.000;2023-02-28T02:12:57;10.10;;;7.53;;
28958;SDS011;16066;0.000;0.000;2023-02-28T02:28:36;12.13;;;8.70;;
28958;SDS011;16066;0.000;0.000;2023-02-28T02:42:16;12.57;;;9.63;;
28958;SDS011;16066;0.000;0.000;2023-02-28T02:45:11;12.07;;;8.50;;
28958;SDS011;16066;0.000;0.000;2023-02-28T02:47:41;14.30;;;9.90;;
28958;SDS011;16066;0.000;0.000;2023-02-28T02:50:11;13.07;;;9.33;;
28958;SDS011;16066;0.000;0.000;2023-02-28T02:52:42;14.73;;;10.20;;
28958;SDS011;16066;0.000;0.000;2023-02-28T02:55:13;15.23;;;9.90;;
28958;SDS011;16066;0.000;0.000;2023-02-28T02:57:45;15.60;;;10.33;;
28958;SDS011;16066;0.000;0.000;2023-02-28T03:00:17;14.03;;;9.67;;
28958;SDS011;16066;0.000;0.000;2023-02-28T03:02:47;13.07;;;8.60;;
28958;SDS011;16066;0.000;0.000;2023-02-28T03:05:19;13.23;;;9.60;;
28958;SDS011;16066;0.000;0.000;2023-02-28T03:07:51;14.47;;;10.30;;
28958;SDS011;16066;0.000;0.000;2023-02-28T03:13:19;15.63;;;9.97;;
28958;SDS011;16066;0.000;0.000;2023-02-28T03:21:55;17.77;;;11.40;;
28958;SDS011;16066;0.000;0.000;2023-02-28T03:27:30;14.90;;;10.47;;
28958;SDS011;16066;0.000;0.000;2023-02-28T03:33:06;15.93;;;10.43;;
28958;SDS011;16066;0.000;0.000;2023-02-28T03:35:40;15.40;;;10.10;;
28958;SDS011;16066;0.000;0.000;2023-02-28T03:38:30;16.43;;;10.90;;
28958;SDS011;16066;0.000;0.000;2023-02-28T03:41:11;14.90;;;9.97;;
28958;SDS011;16066;0.000;0.000;2023-02-28T03:43:41;14.30;;;10.30;;
28958;SDS011;16066;0.000;0.000;2023-02-28T03:46:12;14.30;;;10.33;;
28958;SDS011;16066;0.000;0.000;2023-02-28T03:48:45;15.57;;;11.30;;
28958;SDS011;16066;0.000;0.000;2023-02-28T03:51:17;14.60;;;10.13;;
28958;SDS011;16066;0.000;0.000;2023-02-28T03:53:59;14.37;;;10.67;;
28958;SDS011;16066;0.000;0.000;2023-02-28T03:56:38;13.90;;;10.00;;
28958;SDS011;16066;0.000;0.000;2023-02-28T04:01:54;16.60;;;10.70;;
28958;SDS011;16066;0.000;0.000;2023-02-28T04:04:20;18.50;;;10.83;;
28958;SDS011;16066;0.000;0.000;2023-02-28T04:06:46;15.47;;;10.67;;
28958;SDS011;16066;0.000;0.000;2023-02-28T04:09:17;12.87;;;9.77;;
28958;SDS011;16066;0.000;0.000;2023-02-28T04:11:49;15.13;;;11.00;;
28958;SDS011;16066;0.000;0.000;2023-02-28T04:14:20;12.63;;;9.50;;
28958;SDS011;16066;0.000;0.000;2023-02-28T04:16:46;15.97;;;10.87;;
28958;SDS011;16066;0.000;0.000;2023-02-28T04:19:12;16.20;;;11.37;;
28958;SDS011;16066;0.000;0.000;2023-02-28T04:21:43;15.60;;;9.90;;
28958;SDS011;16066;0.000;0.000;2023-02-28T04:24:12;13.60;;;9.50;;
28958;SDS011;16066;0.000;0.000;2023-02-28T04:26:40;15.73;;;10.93;;
28958;SDS011;16066;0.000;0.000;2023-02-28T04:29:08;13.93;;;9.53;;
28958;SDS011;16066;0.000;0.000;2023-02-28T04:31:34;16.13;;;10.00;;
28958;SDS011;16066;0.000;0.000;2023-02-28T04:34:00;14.83;;;9.60;;
28958;SDS011;16066;0.000;0.000;2023-02-28T04:36:26;13.10;;;9.23;;
28958;SDS011;16066;0.000;0.000;2023-02-28T04:38:52;15.77;;;10.77;;
28958;SDS011;16066;0.000;0.000;2023-02-28T04:41:18;13.60;;;10.13;;
28958;SDS011;16066;0.000;0.000;2023-02-28T04:43:44;12.60;;;9.50;;
28958;SDS011;16066;0.000;0.000;2023-02-28T04:46:09;14.60;;;9.93;;
28958;SDS011;16066;0.000;0.000;2023-02-28T04:48:36;17.00;;;9.57;;
28958;SDS011;16066;0.000;0.000;2023-02-28T04:51:03;16.07;;;10.07;;
28958;SDS011;16066;0.000;0.000;2023-02-28T04:53:31;13.13;;;9.37;;
28958;SDS011;16066;0.000;0.000;2023-02-28T04:55:57;13.93;;;9.30;;
28958;SDS011;16066;0.000;0.000;2023-02-28T04:58:22;10.60;;;8.03;;
28958;SDS011;16066;0.000;0.000;2023-02-28T05:00:51;14.50;;;8.60;;
28958;SDS011;16066;0.000;0.000;2023-02-28T05:03:17;13.40;;;9.17;;
28958;SDS011;16066;0.000;0.000;2023-02-28T05:05:43;12.30;;;9.00;;
28958;SDS011;16066;0.000;0.000;2023-02-28T05:08:09;15.30;;;9.73;;
28958;SDS011;16066;0.000;0.000;2023-02-28T05:10:35;12.10;;;8.67;;
28958;SDS011;16066;0.000;0.000;2023-02-28T05:13:01;11.07;;;8.10;;
28958;SDS011;16066;0.000;0.000;2023-02-28T05:15:27;13.40;;;9.70;;
28958;SDS011;16066;0.000;0.000;2023-02-28T05:17:52;12.87;;;9.33;;
28958;SDS011;16066;0.000;0.000;2023-02-28T05:20:18;14.63;;;10.07;;
28958;SDS011;16066;0.000;0.000;2023-02-28T05:22:43;12.43;;;8.80;;
28958;SDS011;16066;0.000;0.000;2023-02-28T05:25:15;12.77;;;8.60;;
28958;SDS011;16066;0.000;0.000;2023-02-28T05:27:43;13.70;;;8.87;;
28958;SDS011;16066;0.000;0.000;2023-02-28T05:30:09;12.37;;;8.87;;
28958;SDS011;16066;0.000;0.000;2023-02-28T05:32:37;11.00;;;8.10;;
28958;SDS011;16066;0.000;0.000;2023-02-28T05:35:04;10.67;;;8.23;;
28958;SDS011;16066;0.000;0.000;2023-02-28T05:37:30;9.23;;;7.83;;
28958;SDS011;16066;0.000;0.000;2023-02-28T05:39:55;13.13;;;8.57;;
28958;SDS011;16066;0.000;0.000;2023-02-28T05:42:21;12.17;;;8.90;;
28958;SDS011;16066;0.000;0.000;2023-02-28T05:44:46;10.80;;;7.70;;
28958;SDS011;16066;0.000;0.000;2023-02-28T05:47:12;11.87;;;8.67;;
28958;SDS011;16066;0.000;0.000;2023-02-28T05:49:40;11.37;;;8.53;;
28958;SDS011;16066;0.000;0.000;2023-02-28T05:52:06;10.77;;;7.90;;
28958;SDS011;16066;0.000;0.000;2023-02-28T05:54:31;13.30;;;8.17;;
28958;SDS011;16066;0.000;0.000;2023-02-28T05:56:57;9.60;;;8.23;;
28958;SDS011;16066;0.000;0.000;2023-02-28T05:59:23;13.13;;;9.10;;
28958;SDS011;16066;0.000;0.000;2023-02-28T06:01:48;15.00;;;8.07;;
28958;SDS011;16066;0.000;0.000;2023-02-28T06:04:14;14.47;;;8.43;;
28958;SDS011;16066;0.000;0.000;2023-02-28T06:06:47;14.97;;;8.10;;
28958;SDS011;16066;0.000;0.000;2023-02-28T06:09:13;14.13;;;7.93;;
28958;SDS011;16066;0.000;0.000;2023-02-28T06:11:39;10.67;;;7.37;;
28958;SDS011;16066;0.000;0.000;2023-02-28T06:14:05;12.77;;;7.10;;
28958;SDS011;16066;0.000;0.000;2023-02-28T06:16:32;11.13;;;7.90;;
28958;SDS011;16066;0.000;0.000;2023-02-28T06:19:00;11.17;;;7.73;;
28958;SDS011;16066;0.000;0.000;2023-02-28T06:21:28;9.27;;;6.37;;
28958;SDS011;16066;0.000;0.000;2023-02-28T06:23:54;9.73;;;6.77;;
28958;SDS011;16066;0.000;0.000;2023-02-28T06:26:21;13.43;;;6.97;;
28958;SDS011;16066;0.000;0.000;2023-02-28T06:28:46;11.07;;;6.33;;
28958;SDS011;16066;0.000;0.000;2023-02-28T06:31:13;14.57;;;6.10;;
28958;SDS011;16066;0.000;0.000;2023-02-28T06:33:40;11.47;;;7.90;;
28958;SDS011;16066;0.000;0.000;2023-02-28T06:36:07;21.80;;;11.40;;
28958;SDS011;16066;0.000;0.000;2023-02-28T06:38:33;50.90;;;23.80;;
28958;SDS011;16066;0.000;0.000;2023-02-28T06:41:00;107.90;;;48.00;;
28958;SDS011;16066;0.000;0.000;2023-02-28T06:43:30;123.73;;;55.70;;
28958;SDS011;16066;0.000;0.000;2023-02-28T06:45:59;108.20;;;54.40;;
28958;SDS011;16066;0.000;0.000;2023-02-28T06:48:26;119.23;;;57.17;;
28958;SDS011;16066;0.000;0.000;2023-02-28T06:51:00;115.13;;;54.07;;
28958;SDS011;16066;0.000;0.000;2023-02-28T06:53:27;111.93;;;56.00;;
28958;SDS011;16066;0.000;0.000;2023-02-28T06:55:52;109.37;;;52.73;;
28958;SDS011;16066;0.000;0.000;2023-02-28T06:58:18;109.30;;;52.97;;
28958;SDS011;16066;0.000;0.000;2023-02-28T07:00:44;105.30;;;50.63;;
28958;SDS011;16066;0.000;0.000;2023-02-28T07:03:11;103.97;;;52.03;;
28958;SDS011;16066;0.000;0.000;2023-02-28T07:05:37;95.07;;;50.17;;
28958;SDS011;16066;0.000;0.000;2023-02-28T07:08:04;92.03;;;48.67;;
28958;SDS011;16066;0.000;0.000;2023-02-28T07:10:33;83.50;;;43.43;;
28958;SDS011;16066;0.000;0.000;2023-02-28T07:12:59;82.63;;;42.37;;
28958;SDS011;16066;0.000;0.000;2023-02-28T07:15:25;79.63;;;42.93;;
28958;SDS011;16066;0.000;0.000;2023-02-28T07:17:50;76.20;;;40.63;;
28958;SDS011;16066;0.000;0.000;2023-02-28T07:20:16;68.87;;;38.30;;
28958;SDS011;16066;0.000;0.000;2023-02-28T07:22:41;82.07;;;38.83;;
28958;SDS011;16066;0.000;0.000;2023-02-28T07:25:08;61.83;;;34.77;;
28958;SDS011;16066;0.000;0.000;2023-02-28T07:27:34;60.33;;;34.03;;
28958;SDS011;16066;0.000;0.000;2023-02-28T07:29:59;59.03;;;32.70;;
28958;SDS011;16066;0.000;0.000;2023-02-28T07:32:26;62.93;;;33.33;;
28958;SDS011;16066;0.000;0.000;2023-02-28T07:34:53;58.07;;;30.17;;
28958;SDS011;16066;0.000;0.000;2023-02-28T07:37:19;52.93;;;28.13;;
28958;SDS011;16066;0.000;0.000;2023-02-28T07:39:44;55.17;;;27.40;;
28958;SDS011;16066;0.000;0.000;2023-02-28T07:42:10;52.17;;;27.80;;
28958;SDS011;16066;0.000;0.000;2023-02-28T07:44:37;49.20;;;26.00;;
28958;SDS011;16066;0.000;0.000;2023-02-28T07:47:06;48.30;;;24.70;;
28958;SDS011;16066;0.000;0.000;2023-02-28T07:49:33;44.13;;;23.07;;
28958;SDS011;16066;0.000;0.000;2023-02-28T07:52:01;37.27;;;21.83;;
28958;SDS011;16066;0.000;0.000;2023-02-28T07:54:30;41.77;;;22.33;;
28958;SDS011;16066;0.000;0.000;2023-02-28T07:56:56;33.20;;;20.83;;
28958;SDS011;16066;0.000;0.000;2023-02-28T07:59:21;42.43;;;20.17;;
28958;SDS011;16066;0.000;0.000;2023-02-28T08:01:47;31.63;;;18.80;;
28958;SDS011;16066;0.000;0.000;2023-02-28T08:04:15;31.30;;;18.70;;
28958;SDS011;16066;0.000;0.000;2023-02-28T08:06:41;35.13;;;18.07;;
28958;SDS011;16066;0.000;0.000;2023-02-28T08:09:07;34.90;;;17.97;;
28958;SDS011;16066;0.000;0.000;2023-02-28T08:11:32;27.80;;;16.57;;
28958;SDS011;16066;0.000;0.000;2023-02-28T08:13:58;32.00;;;16.03;;
28958;SDS011;16066;0.000;0.000;2023-02-28T08:16:23;24.50;;;14.90;;
28958;SDS011;16066;0.000;0.000;2023-02-28T08:18:49;28.97;;;16.63;;
28958;SDS011;16066;0.000;0.000;2023-02-28T08:21:16;26.00;;;15.87;;
28958;SDS011;16066;0.000;0.000;2023-02-28T08:23:42;25.33;;;14.50;;
28958;SDS011;16066;0.000;0.000;2023-02-28T08:26:08;21.33;;;13.07;;
28958;SDS011;16066;0.000;0.000;2023-02-28T08:28:33;25.97;;;14.00;;
28958;SDS011;16066;0.000;0.000;2023-02-28T08:30:59;24.50;;;13.30;;
28958;SDS011;16066;0.000;0.000;2023-02-28T08:33:26;20.20;;;11.20;;
28958;SDS011;16066;0.000;0.000;2023-02-28T08:35:56;20.30;;;12.67;;
28958;SDS011;16066;0.000;0.000;2023-02-28T08:38:22;20.73;;;12.50;;
28958;SDS011;16066;0.000;0.000;2023-02-28T08:40:48;18.17;;;10.93;;
28958;SDS011;16066;0.000;0.000;2023-02-28T08:43:13;22.13;;;11.20;;
28958;SDS011;16066;0.000;0.000;2023-02-28T08:45:39;16.97;;;10.80;;
28958;SDS011;16066;0.000;0.000;2023-02-28T08:48:05;17.30;;;10.77;;
28958;SDS011;16066;0.000;0.000;2023-02-28T08:50:30;19.33;;;10.10;;
28958;SDS011;16066;0.000;0.000;2023-02-28T08:52:56;22.20;;;9.30;;
28958;SDS011;16066;0.000;0.000;2023-02-28T08:55:21;16.13;;;9.50;;
28958;SDS011;16066;0.000;0.000;2023-02-28T08:57:47;16.60;;;8.80;;
28958;SDS011;16066;0.000;0.000;2023-02-28T09:00:13;11.47;;;8.20;;
28958;SDS011;16066;0.000;0.000;2023-02-28T09:02:39;13.53;;;8.70;;
28958;SDS011;16066;0.000;0.000;2023-02-28T09:05:06;13.93;;;7.90;;
28958;SDS011;16066;0.000;0.000;2023-02-28T09:07:32;14.10;;;7.60;;
28958;SDS011;16066;0.000;0.000;2023-02-28T09:09:58;9.23;;;6.50;;
28958;SDS011;16066;0.000;0.000;2023-02-28T09:12:24;15.23;;;7.77;;
28958;SDS011;16066;0.000;0.000;2023-02-28T09:14:51;11.37;;;7.77;;
28958;SDS011;16066;0.000;0.000;2023-02-28T09:17:17;14.93;;;8.50;;
28958;SDS011;16066;0.000;0.000;2023-02-28T09:19:43;13.73;;;7.83;;
28958;SDS011;16066;0.000;0.000;2023-02-28T09:22:09;13.53;;;7.50;;
28958;SDS011;16066;0.000;0.000;2023-02-28T09:24:36;12.73;;;8.53;;
28958;SDS011;16066;0.000;0.000;2023-02-28T09:27:02;13.40;;;9.00;;
28958;SDS011;16066;0.000;0.000;2023-02-28T09:29:28;14.13;;;9.17;;
28958;SDS011;16066;0.000;0.000;2023-02-28T09:31:54;14.83;;;9.27;;
28958;SDS011;16066;0.000;0.000;2023-02-28T09:34:21;14.87;;;9.07;;
28958;SDS011;16066;0.000;0.000;2023-02-28T09:36:46;17.70;;;9.00;;
28958;SDS011;16066;0.000;0.000;2023-02-28T09:39:12;12.87;;;8.70;;
28958;SDS011;16066;0.000;0.000;2023-02-28T09:41:41;13.20;;;8.97;;
28958;SDS011;16066;0.000;0.000;2023-02-28T09:44:35;17.30;;;8.10;;
28958;SDS011;16066;0.000;0.000;2023-02-28T09:47:15;13.10;;;9.10;;
28958;SDS011;16066;0.000;0.000;2023-02-28T09:49:46;11.77;;;8.10;;
28958;SDS011;16066;0.000;0.000;2023-02-28T09:52:20;11.77;;;8.37;;
28958;SDS011;16066;0.000;0.000;2023-02-28T09:54:49;11.20;;;8.30;;
28958;SDS011;16066;0.000;0.000;2023-02-28T09:57:17;12.13;;;8.50;;
28958;SDS011;16066;0.000;0.000;2023-02-28T09:59:58;11.90;;;7.80;;
28958;SDS011;16066;0.000;0.000;2023-02-28T10:10:40;16.10;;;8.70;;
28958;SDS011;16066;0.000;0.000;2023-02-28T10:13:19;10.43;;;7.13;;
28958;SDS011;16066;0.000;0.000;2023-02-28T10:15:52;12.67;;;8.03;;
28958;SDS011;16066;0.000;0.000;2023-02-28T10:18:24;9.73;;;7.53;;
28958;SDS011;16066;0.000;0.000;2023-02-28T10:20:56;12.50;;;7.63;;
28958;SDS011;16066;0.000;0.000;2023-02-28T10:26:00;11.43;;;7.57;;
28958;SDS011;16066;0.000;0.000;2023-02-28T10:28:35;42.90;;;21.40;;
28958;SDS011;16066;0.000;0.000;2023-02-28T10:31:00;50.20;;;23.50;;
28958;SDS011;16066;0.000;0.000;2023-02-28T10:33:30;57.60;;;26.10;;
28958;SDS011;16066;0.000;0.000;2023-02-28T10:36:00;47.70;;;23.00;;
28958;SDS011;16066;0.000;0.000;2023-02-28T10:38:31;39.53;;;19.47;;
28958;SDS011;16066;0.000;0.000;2023-02-28T10:43:37;32.27;;;16.43;;
28958;SDS011;16066;0.000;0.000;2023-02-28T10:51:14;20.40;;;12.73;;
28958;SDS011;16066;0.000;0.000;2023-02-28T11:01:19;17.70;;;11.83;;
28958;SDS011;16066;0.000;0.000;2023-02-28T11:04:20;18.93;;;11.50;;
28958;SDS011;16066;0.000;0.000;2023-02-28T11:07:19;18.30;;;11.60;;
28958;SDS011;16066;0.000;0.000;2023-02-28T11:09:45;17.23;;;11.83;;
28958;SDS011;16066;0.000;0.000;2023-02-28T11:18:02;15.13;;;11.23;;
28958;SDS011;16066;0.000;0.000;2023-02-28T11:20:33;20.07;;;10.97;;
28958;SDS011;16066;0.000;0.000;2023-02-28T11:23:00;18.87;;;11.07;;
28958;SDS011;16066;0.000;0.000;2023-02-28T11:25:32;16.70;;;11.30;;
28958;SDS011;16066;0.000;0.000;2023-02-28T11:28:03;18.27;;;12.20;;
28958;SDS011;16066;0.000;0.000;2023-02-28T11:30:59;21.77;;;11.10;;
28958;SDS011;16066;0.000;0.000;2023-02-28T11:33:29;14.70;;;10.10;;
28958;SDS011;16066;0.000;0.000;2023-02-28T11:35:58;18.03;;;10.63;;
28958;SDS011;16066;0.000;0.000;2023-02-28T11:38:29;20.60;;;11.93;;
28958;SDS011;16066;0.000;0.000;2023-02-28T11:46:14;18.83;;;11.70;;
28958;SDS011;16066;0.000;0.000;2023-02-28T11:51:35;20.40;;;14.57;;
28958;SDS011;16066;0.000;0.000;2023-02-28T12:02:45;21.70;;;15.30;;
28958;SDS011;16066;0.000;0.000;2023-02-28T12:08:18;28.50;;;15.43;;
28958;SDS011;16066;0.000;0.000;2023-02-28T12:10:59;26.80;;;14.90;;
28958;SDS011;16066;0.000;0.000;2023-02-28T12:13:29;25.43;;;15.87;;
28958;SDS011;16066;0.000;0.000;2023-02-28T12:16:26;23.93;;;14.80;;
28958;SDS011;16066;0.000;0.000;2023-02-28T12:19:16;18.53;;;13.37;;
28958;SDS011;16066;0.000;0.000;2023-02-28T12:22:12;22.50;;;14.23;;
28958;SDS011;16066;0.000;0.000;2023-02-28T12:27:26;22.40;;;14.73;;
28958;SDS011;16066;0.000;0.000;2023-02-28T12:30:01;21.00;;;13.40;;
28958;SDS011;16066;0.000;0.000;2023-02-28T12:32:33;18.87;;;12.63;;
28958;SDS011;16066;0.000;0.000;2023-02-28T12:40:09;22.10;;;14.33;;
28958;SDS011;16066;0.000;0.000;2023-02-28T12:42:39;25.73;;;15.67;;
28958;SDS011;16066;0.000;0.000;2023-02-28T12:45:20;23.60;;;16.50;;
28958;SDS011;16066;0.000;0.000;2023-02-28T12:47:59;22.00;;;16.27;;
28958;SDS011;16066;0.000;0.000;2023-02-28T12:50:29;29.80;;;15.70;;
28958;SDS011;16066;0.000;0.000;2023-02-28T12:53:09;22.57;;;15.13;;
28958;SDS011;16066;0.000;0.000;2023-02-28T12:56:11;21.67;;;15.20;;
28958;SDS011;16066;0.000;0.000;2023-02-28T12:58:42;23.30;;;15.83;;
28958;SDS011;16066;0.000;0.000;2023-02-28T13:01:34;24.73;;;18.40;;
28958;SDS011;16066;0.000;0.000;2023-02-28T13:07:10;33.80;;;22.63;;
28958;SDS011;16066;0.000;0.000;2023-02-28T13:09:53;35.63;;;25.00;;
28958;SDS011;16066;0.000;0.000;2023-02-28T13:12:20;34.97;;;23.23;;
28958;SDS011;16066;0.000;0.000;2023-02-28T13:14:47;30.73;;;22.53;;
28958;SDS011;16066;0.000;0.000;2023-02-28T13:17:18;30.60;;;20.87;;
28958;SDS011;16066;0.000;0.000;2023-02-28T13:22:19;33.73;;;21.10;;
28958;SDS011;16066;0.000;0.000;2023-02-28T13:24:54;27.60;;;20.37;;
28958;SDS011;16066;0.000;0.000;2023-02-28T13:30:00;26.47;;;18.80;;
28958;SDS011;16066;0.000;0.000;2023-02-28T13:32:32;24.53;;;18.23;;
28958;SDS011;16066;0.000;0.000;2023-02-28T13:47:31;23.20;;;15.43;;
28958;SDS011;16066;0.000;0.000;2023-02-28T13:50:24;21.97;;;15.17;;
28958;SDS011;16066;0.000;0.000;2023-02-28T14:07:25;22.93;;;13.97;;
28958;SDS011;16066;0.000;0.000;2023-02-28T14:10:03;23.10;;;12.50;;
28958;SDS011;16066;0.000;0.000;2023-02-28T14:17:55;23.13;;;12.83;;
28958;SDS011;16066;0.000;0.000;2023-02-28T14:20:25;22.07;;;11.93;;
28958;SDS011;16066;0.000;0.000;2023-02-28T14:25:40;38.60;;;13.43;;
28958;SDS011;16066;0.000;0.000;2023-02-28T14:31:11;29.03;;;11.40;;
28958;SDS011;16066;0.000;0.000;2023-02-28T14:34:12;22.40;;;12.33;;
28958;SDS011;16066;0.000;0.000;2023-02-28T14:36:50;22.90;;;10.90;;
28958;SDS011;16066;0.000;0.000;2023-02-28T14:39:22;31.40;;;10.00;;
28958;SDS011;16066;0.000;0.000;2023-02-28T14:41:49;20.80;;;11.00;;
28958;SDS011;16066;0.000;0.000;2023-02-28T14:44:17;20.43;;;10.20;;
28958;SDS011;16066;0.000;0.000;2023-02-28T14:46:45;27.53;;;10.40;;
28958;SDS011;16066;0.000;0.000;2023-02-28T14:49:26;15.60;;;9.80;;
28958;SDS011;16066;0.000;0.000;2023-02-28T14:52:12;21.90;;;9.30;;
28958;SDS011;16066;0.000;0.000;2023-02-28T14:54:45;18.53;;;8.70;;
28958;SDS011;16066;0.000;0.000;2023-02-28T14:57:21;16.20;;;9.07;;
28958;SDS011;16066;0.000;0.000;2023-02-28T14:59:58;25.87;;;13.40;;
28958;SDS011;16066;0.000;0.000;2023-02-28T15:02:42;28.20;;;17.13;;
28958;SDS011;16066;0.000;0.000;2023-02-28T15:07:46;29.90;;;18.47;;
28958;SDS011;16066;0.000;0.000;2023-02-28T15:12:54;32.60;;;20.00;;
28958;SDS011;16066;0.000;0.000;2023-02-28T15:15:27;29.70;;;19.40;;
28958;SDS011;16066;0.000;0.000;2023-02-28T15:18:01;35.10;;;21.60;;
28958;SDS011;16066;0.000;0.000;2023-02-28T15:20:30;32.50;;;21.17;;
28958;SDS011;16066;0.000;0.000;2023-02-28T15:22:57;30.67;;;20.43;;
28958;SDS011;16066;0.000;0.000;2023-02-28T15:25:23;33.50;;;21.50;;
28958;SDS011;16066;0.000;0.000;2023-02-28T15:27:52;33.90;;;20.70;;
28958;SDS011;16066;0.000;0.000;2023-02-28T15:30:21;30.53;;;19.50;;
28958;SDS011;16066;0.000;0.000;2023-02-28T15:33:03;27.63;;;18.43;;
28958;SDS011;16066;0.000;0.000;2023-02-28T15:35:36;27.30;;;18.70;;
28958;SDS011;16066;0.000;0.000;2023-02-28T15:38:03;27.07;;;19.17;;
28958;SDS011;16066;0.000;0.000;2023-02-28T15:40:45;27.77;;;18.20;;
28958;SDS011;16066;0.000;0.000;2023-02-28T15:43:31;26.90;;;17.93;;
28958;SDS011;16066;0.000;0.000;2023-02-28T15:46:08;23.27;;;15.60;;
28958;SDS011;16066;0.000;0.000;2023-02-28T15:48:36;25.67;;;17.60;;
28958;SDS011;16066;0.000;0.000;2023-02-28T15:51:16;20.87;;;15.13;;
28958;SDS011;16066;0.000;0.000;2023-02-28T15:56:23;22.53;;;15.53;;
28958;SDS011;16066;0.000;0.000;2023-02-28T15:58:58;24.40;;;16.37;;
28958;SDS011;16066;0.000;0.000;2023-02-28T16:01:32;22.13;;;14.77;;
28958;SDS011;16066;0.000;0.000;2023-02-28T16:04:01;20.50;;;14.43;;
28958;SDS011;16066;0.000;0.000;2023-02-28T16:06:36;19.60;;;14.27;;
28958;SDS011;16066;0.000;0.000;2023-02-28T16:09:08;20.13;;;13.67;;
28958;SDS011;16066;0.000;0.000;2023-02-28T16:11:37;22.70;;;14.70;;
28958;SDS011;16066;0.000;0.000;2023-02-28T16:14:06;21.57;;;14.03;;
28958;SDS011;16066;0.000;0.000;2023-02-28T16:16:33;18.83;;;12.83;;
28958;SDS011;16066;0.000;0.000;2023-02-28T16:18:59;17.60;;;12.93;;
28958;SDS011;16066;0.000;0.000;2023-02-28T16:21:25;18.70;;;11.80;;
28958;SDS011;16066;0.000;0.000;2023-02-28T16:23:51;17.77;;;11.97;;
28958;SDS011;16066;0.000;0.000;2023-02-28T16:26:21;13.90;;;9.53;;
28958;SDS011;16066;0.000;0.000;2023-02-28T16:28:48;20.77;;;11.40;;
28958;SDS011;16066;0.000;0.000;2023-02-28T16:31:14;21.17;;;11.27;;
28958;SDS011;16066;0.000;0.000;2023-02-28T16:33:41;22.13;;;11.40;;
28958;SDS011;16066;0.000;0.000;2023-02-28T16:36:10;21.67;;;12.10;;
28958;SDS011;16066;0.000;0.000;2023-02-28T16:38:42;16.87;;;10.77;;
28958;SDS011;16066;0.000;0.000;2023-02-28T16:41:08;16.27;;;9.87;;
28958;SDS011;16066;0.000;0.000;2023-02-28T16:43:41;17.43;;;9.73;;
28958;SDS011;16066;0.000;0.000;2023-02-28T16:46:09;14.87;;;9.17;;
28958;SDS011;16066;0.000;0.000;2023-02-28T16:48:36;17.40;;;9.13;;
28958;SDS011;16066;0.000;0.000;2023-02-28T16:51:02;18.37;;;9.30;;
28958;SDS011;16066;0.000;0.000;2023-02-28T16:53:29;14.03;;;9.00;;
28958;SDS011;16066;0.000;0.000;2023-02-28T16:55:54;15.63;;;8.83;;
28958;SDS011;16066;0.000;0.000;2023-02-28T16:58:20;15.50;;;8.30;;
28958;SDS011;16066;0.000;0.000;2023-02-28T17:00:48;12.37;;;7.53;;
28958;SDS011;16066;0.000;0.000;2023-02-28T17:03:24;12.83;;;8.13;;
28958;SDS011;16066;0.000;0.000;2023-02-28T17:05:51;13.27;;;7.93;;
28958;SDS011;16066;0.000;0.000;2023-02-28T17:08:17;11.63;;;7.50;;
28958;SDS011;16066;0.000;0.000;2023-02-28T17:10:43;11.83;;;8.10;;
28958;SDS011;16066;0.000;0.000;2023-02-28T17:13:08;11.67;;;7.97;;
28958;SDS011;16066;0.000;0.000;2023-02-28T17:15:34;10.67;;;7.43;;
28958;SDS011;16066;0.000;0.000;2023-02-28T17:18:01;9.47;;;6.60;;
28958;SDS011;16066;0.000;0.000;2023-02-28T17:20:27;7.93;;;6.23;;
28958;SDS011;16066;0.000;0.000;2023-02-28T17:22:53;8.37;;;5.57;;
28958;SDS011;16066;0.000;0.000;2023-02-28T17:25:19;10.97;;;6.00;;
28958;SDS011;16066;0.000;0.000;2023-02-28T17:27:45;10.63;;;6.20;;
28958;SDS011;16066;0.000;0.000;2023-02-28T17:32:37;9.23;;;6.00;;
28958;SDS011;16066;0.000;0.000;2023-02-28T17:35:03;7.63;;;5.60;;
28958;SDS011;16066;0.000;0.000;2023-02-28T17:37:29;8.30;;;5.63;;
28958;SDS011;16066;0.000;0.000;2023-02-28T17:39:54;9.87;;;5.53;;
28958;SDS011;16066;0.000;0.000;2023-02-28T17:42:20;11.13;;;6.70;;